Krasnoyarsk, Russia
Current Conditions -  °F | °C
As of 8:00 AM on Tuesday 21 Oct 2014 (Local Time) from UNKL Reporting Station
Broken Clouds Broken Clouds  
Wind Chill: 42°   Ceiling: 8300
Heat Index: 46°   Visibility: 6mi
Dew Point: 37°   Wind: 9mph
Humidity: 71%   Direction: 170°S
Pressure: 29.56"   Gusts: NA
Location:  56.03°N, 93.05°E
Report Text: UNKL 210100Z 17004MPS 9999 SCT033CB BKN083 08/03 Q1001 NOSIGRMK QFE725 29////65
Loading
Personal Weather Stations






























Interactive Weather Map
Tropical Storm Tracking
New forecast layout! Learn more

10-Day Weather Forecast

Advertisements
Track Severe Weather on mobile